createdAt,value
2022-11-16T00:00:44.483Z,95226.56
2022-11-16T00:03:10.768Z,95234.06
2022-11-16T00:05:37.061Z,95247.50
2022-11-16T00:08:03.373Z,95247.66
2022-11-16T00:10:29.679Z,95245.44
2022-11-16T00:12:55.972Z,95240.16
2022-11-16T00:15:22.290Z,95246.94
2022-11-16T00:17:48.582Z,95252.81
2022-11-16T00:20:14.884Z,95245.09
2022-11-16T00:22:41.190Z,95244.91
2022-11-16T00:25:07.490Z,95246.06
2022-11-16T00:27:33.791Z,95241.94
2022-11-16T00:30:00.168Z,95221.50
2022-11-16T00:32:26.472Z,95228.47
2022-11-16T00:34:52.765Z,95237.16
2022-11-16T00:37:19.089Z,95252.94
2022-11-16T00:39:45.398Z,95248.50
2022-11-16T00:42:11.700Z,95253.63
2022-11-16T00:44:38.021Z,95263.59
2022-11-16T00:47:04.327Z,95270.97
2022-11-16T00:49:30.629Z,95276.59
2022-11-16T00:51:56.949Z,95266.09
2022-11-16T00:54:23.257Z,95258.97
2022-11-16T00:56:49.560Z,95264.88
2022-11-16T00:59:15.893Z,95280.09
2022-11-16T01:01:42.221Z,95286.81
2022-11-16T01:04:08.600Z,95293.94
2022-11-16T01:06:34.912Z,95294.22
2022-11-16T01:09:01.224Z,95304.59
2022-11-16T01:11:27.524Z,95306.63
2022-11-16T01:13:53.885Z,95303.69
2022-11-16T01:16:20.179Z,95305.97
2022-11-16T01:18:46.490Z,95296.53
2022-11-16T01:21:12.817Z,95288.50
2022-11-16T01:23:39.127Z,95297.78
2022-11-16T01:26:05.428Z,95295.63
2022-11-16T01:28:32.210Z,95305.56
2022-11-16T01:30:58.696Z,95297.63
2022-11-16T01:33:24.998Z,95300.41
2022-11-16T01:35:51.351Z,95304.25
2022-11-16T01:38:17.654Z,95296.22
2022-11-16T01:40:43.946Z,95297.81
2022-11-16T01:43:10.268Z,95303.97
2022-11-16T01:45:36.562Z,95311.81
2022-11-16T01:48:02.896Z,95299.63
2022-11-16T01:50:29.248Z,95298.56
2022-11-16T01:52:55.536Z,95303.66
2022-11-16T01:55:21.833Z,95315.25
2022-11-16T01:57:48.144Z,95306.59
2022-11-16T02:00:14.451Z,95291.75
2022-11-16T02:02:40.752Z,95298.78
2022-11-16T02:05:07.055Z,95300.38
2022-11-16T02:07:33.409Z,95295.75
2022-11-16T02:09:59.792Z,95284.91
2022-11-16T02:12:26.102Z,95278.16
2022-11-16T02:14:52.402Z,95286.06
2022-11-16T02:17:18.698Z,95283.44
2022-11-16T02:19:45.019Z,95287.03
2022-11-16T02:22:11.321Z,95285.97
2022-11-16T02:24:37.633Z,95287.19
2022-11-16T02:27:03.935Z,95289.50
2022-11-16T02:29:30.233Z,95292.00
2022-11-16T02:31:56.538Z,95283.88
2022-11-16T02:34:22.845Z,95283.63
2022-11-16T02:36:49.146Z,95289.31
2022-11-16T02:39:15.435Z,95289.91
2022-11-16T02:41:41.772Z,95281.41
2022-11-16T02:44:08.050Z,95275.16
2022-11-16T02:46:34.346Z,95291.31
2022-11-16T02:49:00.662Z,95281.94
2022-11-16T02:51:26.963Z,95288.94
2022-11-16T02:53:53.264Z,95286.63
2022-11-16T02:56:19.579Z,95282.59
2022-11-16T02:58:45.881Z,95275.09
2022-11-16T03:01:12.293Z,95269.63
2022-11-16T03:03:38.612Z,95266.50
2022-11-16T03:06:04.919Z,95266.28
2022-11-16T03:08:31.448Z,95263.97
2022-11-16T03:10:58.118Z,95267.19
2022-11-16T03:13:24.413Z,95268.59
2022-11-16T03:15:50.784Z,95261.03
2022-11-16T03:18:17.103Z,95264.72
2022-11-16T03:20:43.383Z,95250.28
2022-11-16T03:23:09.669Z,95259.88
2022-11-16T03:25:35.975Z,95255.66
2022-11-16T03:28:02.267Z,95243.63
2022-11-16T03:30:28.572Z,95245.03
2022-11-16T03:32:54.879Z,95248.16
2022-11-16T03:35:21.162Z,95245.03
2022-11-16T03:37:47.454Z,95245.94
2022-11-16T03:40:13.763Z,95237.03
2022-11-16T03:42:40.049Z,95246.94
2022-11-16T03:45:06.340Z,95237.81
2022-11-16T03:47:32.693Z,95237.09
2022-11-16T03:49:58.987Z,95240.66
2022-11-16T03:52:25.287Z,95237.31
2022-11-16T03:54:51.605Z,95246.16
2022-11-16T03:57:17.905Z,95244.78
2022-11-16T03:59:44.200Z,95241.00
2022-11-16T04:02:10.515Z,95224.84
2022-11-16T04:04:36.806Z,95222.06
2022-11-16T04:07:03.161Z,95220.09
2022-11-16T04:09:29.505Z,95222.88
2022-11-16T04:11:55.794Z,95217.97
2022-11-16T04:14:22.084Z,95225.50
2022-11-16T04:16:48.400Z,95222.00
2022-11-16T04:19:14.687Z,95217.53
2022-11-16T04:21:40.974Z,95227.56
2022-11-16T04:24:07.297Z,95221.38
2022-11-16T04:26:33.597Z,95227.72
2022-11-16T04:28:59.890Z,95228.75
2022-11-16T04:31:26.196Z,95238.19
2022-11-16T04:33:52.502Z,95236.13
2022-11-16T04:36:20.724Z,95226.47
2022-11-16T04:38:47.230Z,95229.56
2022-11-16T04:41:13.530Z,95236.59
2022-11-16T04:43:39.825Z,95242.84
2022-11-16T04:46:06.142Z,95241.28
2022-11-16T04:48:32.770Z,95233.53
2022-11-16T04:50:59.310Z,95234.00
2022-11-16T04:53:25.686Z,95244.53
2022-11-16T04:55:54.358Z,95247.09
2022-11-16T04:58:22.945Z,95247.09
2022-11-16T05:00:49.260Z,95236.63
2022-11-16T05:03:15.546Z,95229.00
2022-11-16T05:05:41.831Z,95234.44
2022-11-16T05:08:09.279Z,95238.91
2022-11-16T05:10:35.715Z,95230.03
2022-11-16T05:13:02.017Z,95234.06
2022-11-16T05:15:28.433Z,95231.06
2022-11-16T05:17:54.727Z,95232.31
2022-11-16T05:20:21.012Z,95227.56
2022-11-16T05:22:47.315Z,95238.47
2022-11-16T05:25:13.604Z,95239.41
2022-11-16T05:27:39.890Z,95246.22
2022-11-16T05:30:06.194Z,95241.41
2022-11-16T05:32:32.490Z,95244.91
2022-11-16T05:34:58.779Z,95249.03
2022-11-16T05:37:25.086Z,95240.13
2022-11-16T05:39:52.500Z,95235.44
2022-11-16T05:42:18.784Z,95231.56
2022-11-16T05:44:45.210Z,95229.38
2022-11-16T05:47:11.492Z,95235.34
2022-11-16T05:49:37.783Z,95228.59
2022-11-16T05:52:04.074Z,95225.69
2022-11-16T05:54:30.363Z,95224.16
2022-11-16T05:56:56.658Z,95234.91
2022-11-16T05:59:23.007Z,95233.06
2022-11-16T06:01:49.303Z,95237.59
2022-11-16T06:04:15.596Z,95240.13
2022-11-16T06:06:41.901Z,95235.56
2022-11-16T06:09:08.209Z,95234.56
2022-11-16T06:11:36.232Z,95239.69
2022-11-16T06:14:02.742Z,95226.25
2022-11-16T06:16:29.043Z,95225.25
2022-11-16T06:18:55.322Z,95234.38
2022-11-16T06:21:21.667Z,95229.47
2022-11-16T06:23:47.959Z,95229.25
2022-11-16T06:26:14.252Z,95235.63
2022-11-16T06:28:40.577Z,95228.28
2022-11-16T06:31:06.872Z,95233.19
2022-11-16T06:33:33.925Z,95229.81
2022-11-16T06:36:00.462Z,95228.69
2022-11-16T06:38:26.762Z,95242.00
2022-11-16T06:40:53.127Z,95248.78
2022-11-16T06:43:19.446Z,95243.16
2022-11-16T06:45:45.726Z,95246.00
2022-11-16T06:48:12.031Z,95249.00
2022-11-16T06:50:38.343Z,95245.75
2022-11-16T06:53:04.638Z,95252.06
2022-11-16T06:55:30.978Z,95244.25
2022-11-16T06:57:57.285Z,95240.91
2022-11-16T07:00:23.580Z,95241.00
2022-11-16T07:02:49.871Z,95239.00
2022-11-16T07:05:16.221Z,95246.66
2022-11-16T07:07:42.525Z,95234.16
2022-11-16T07:10:08.807Z,95234.16
2022-11-16T07:12:35.119Z,95243.94
2022-11-16T07:15:01.425Z,95248.34
2022-11-16T07:17:27.732Z,95246.00
2022-11-16T07:19:54.061Z,95248.41
2022-11-16T07:22:20.371Z,95251.91
2022-11-16T07:24:46.672Z,95253.72
2022-11-16T07:27:13.157Z,95253.16
2022-11-16T07:29:39.493Z,95260.34
2022-11-16T07:32:05.788Z,95255.09
2022-11-16T07:34:32.103Z,95258.63
2022-11-16T07:36:58.403Z,95256.56
2022-11-16T07:39:24.706Z,95252.06
2022-11-16T07:41:51.148Z,95254.00
2022-11-16T07:44:17.462Z,95255.84
2022-11-16T07:46:47.067Z,95256.97
2022-11-16T07:49:14.375Z,95255.94
2022-11-16T07:51:40.694Z,95260.00
2022-11-16T07:54:06.985Z,95265.41
2022-11-16T07:56:33.306Z,95270.50
2022-11-16T07:58:59.606Z,95272.47
2022-11-16T08:01:25.938Z,95270.13
2022-11-16T08:03:52.333Z,95267.06
2022-11-16T08:06:18.631Z,95267.41
2022-11-16T08:08:44.930Z,95278.25
2022-11-16T08:11:11.299Z,95279.22
2022-11-16T08:13:37.606Z,95277.38
2022-11-16T08:16:03.908Z,95275.69
2022-11-16T08:18:30.356Z,95270.47
2022-11-16T08:20:56.696Z,95277.59
2022-11-16T08:23:22.994Z,95277.38
2022-11-16T08:25:49.315Z,95283.72
2022-11-16T08:28:15.617Z,95287.22
2022-11-16T08:30:41.921Z,95287.34
2022-11-16T08:33:08.241Z,95284.81
2022-11-16T08:35:34.526Z,95288.13
2022-11-16T08:38:00.829Z,95286.94
2022-11-16T08:40:27.219Z,95282.03
2022-11-16T08:42:53.523Z,95282.97
2022-11-16T08:45:19.811Z,95280.06
2022-11-16T08:47:46.140Z,95286.41
2022-11-16T08:50:12.446Z,95282.28
2022-11-16T08:52:38.755Z,95282.13
2022-11-16T08:55:05.160Z,95282.41
2022-11-16T08:57:31.459Z,95276.69
2022-11-16T08:59:57.774Z,95274.41
2022-11-16T09:02:24.125Z,95279.97
2022-11-16T09:04:50.426Z,95276.72
2022-11-16T09:07:16.772Z,95282.78
2022-11-16T09:09:43.117Z,95278.91
2022-11-16T09:12:09.409Z,95267.00
2022-11-16T09:14:35.710Z,95271.31
2022-11-16T09:17:02.064Z,95264.66
2022-11-16T09:19:28.365Z,95264.53
2022-11-16T09:21:54.650Z,95265.44
2022-11-16T09:24:20.951Z,95278.34
2022-11-16T09:26:47.359Z,95274.47
2022-11-16T09:29:13.661Z,95271.06
2022-11-16T09:31:39.966Z,95275.84
2022-11-16T09:34:06.262Z,95275.09
2022-11-16T09:36:32.561Z,95281.44
2022-11-16T09:41:45.174Z,95277.25
2022-11-16T09:44:11.516Z,95280.03
2022-11-16T09:46:37.811Z,95285.63
2022-11-16T09:49:04.115Z,95287.81
2022-11-16T09:51:30.432Z,95289.31
2022-11-16T09:53:56.738Z,95292.88
2022-11-16T09:56:23.044Z,95293.03
2022-11-16T09:58:49.360Z,95282.63
2022-11-16T10:01:15.708Z,95278.50
2022-11-16T10:03:42.013Z,95283.38
2022-11-16T10:06:08.452Z,95278.66
2022-11-16T10:08:34.953Z,95282.22
2022-11-16T10:11:01.468Z,95274.44
2022-11-16T10:13:27.784Z,95273.63
2022-11-16T10:15:54.066Z,95276.06
2022-11-16T10:18:20.359Z,95274.47
2022-11-16T10:20:46.722Z,95274.41
2022-11-16T10:23:13.017Z,95270.03
2022-11-16T10:25:39.310Z,95269.22
2022-11-16T10:28:05.636Z,95263.25
2022-11-16T10:30:31.927Z,95264.34
2022-11-16T10:32:58.212Z,95264.44
2022-11-16T10:35:24.541Z,95271.03
2022-11-16T10:37:50.871Z,95266.19
2022-11-16T10:40:17.200Z,95250.34
2022-11-16T10:42:43.504Z,95253.03
2022-11-16T10:45:09.793Z,95254.78
2022-11-16T10:47:36.082Z,95244.19
2022-11-16T10:50:02.415Z,95243.84
2022-11-16T10:52:28.709Z,95231.06
2022-11-16T10:54:55.053Z,95228.03
2022-11-16T10:57:21.369Z,95238.66
2022-11-16T10:59:47.669Z,95236.28
2022-11-16T11:02:13.969Z,95231.47
2022-11-16T11:04:40.277Z,95227.31
2022-11-16T11:07:06.627Z,95242.44
2022-11-16T11:09:32.936Z,95227.66
2022-11-16T11:11:59.239Z,95221.22
2022-11-16T11:14:25.844Z,95216.31
2022-11-16T11:16:52.213Z,95209.47
2022-11-16T11:19:18.515Z,95210.50
2022-11-16T11:21:44.982Z,95197.88
2022-11-16T11:24:42.851Z,95195.75
2022-11-16T11:26:57.892Z,95189.97
2022-11-16T11:29:24.543Z,95184.44
2022-11-16T11:31:50.908Z,95181.81
2022-11-16T11:34:17.221Z,95182.00
2022-11-16T11:36:43.518Z,95178.81
2022-11-16T11:39:09.847Z,95168.69
2022-11-16T11:41:36.140Z,95167.13
2022-11-16T11:44:02.427Z,95167.22
2022-11-16T11:46:47.533Z,95159.78
2022-11-16T11:49:15.011Z,95163.34
2022-11-16T11:51:41.308Z,95159.41
2022-11-16T11:54:07.594Z,95166.56
2022-11-16T11:56:34.104Z,95159.44
2022-11-16T11:59:00.597Z,95150.25
2022-11-16T12:01:27.109Z,95145.59
2022-11-16T12:03:53.471Z,95143.69
2022-11-16T12:06:19.767Z,95139.16
2022-11-16T12:08:46.057Z,95145.53
2022-11-16T12:11:12.380Z,95131.81
2022-11-16T12:13:38.673Z,95129.91
2022-11-16T12:16:04.964Z,95128.81
2022-11-16T12:18:31.272Z,95127.88
2022-11-16T12:20:57.572Z,95113.88
2022-11-16T12:23:23.865Z,95116.56
2022-11-16T12:25:50.170Z,95115.19
2022-11-16T12:28:16.451Z,95112.31
2022-11-16T12:30:42.747Z,95111.34
2022-11-16T12:33:09.105Z,95106.63
2022-11-16T12:35:35.481Z,95102.06
2022-11-16T12:38:01.917Z,95100.63
2022-11-16T12:40:28.264Z,95103.63
2022-11-16T12:42:54.556Z,95100.91
2022-11-16T12:45:20.873Z,95099.88
2022-11-16T12:47:47.189Z,95089.53
2022-11-16T12:50:13.486Z,95088.69
2022-11-16T12:52:39.781Z,95083.63
2022-11-16T12:57:52.369Z,95070.34
2022-11-16T13:00:18.695Z,95078.25
2022-11-16T13:02:44.984Z,95074.84
2022-11-16T13:05:11.277Z,95065.41
2022-11-16T13:07:37.691Z,95059.81
2022-11-16T13:10:04.030Z,95064.63
2022-11-16T13:12:30.324Z,95059.03
2022-11-16T13:14:56.643Z,95050.06
2022-11-16T13:17:22.945Z,95064.53
2022-11-16T13:19:49.249Z,95049.38
2022-11-16T13:22:15.570Z,95059.50
2022-11-16T13:24:42.002Z,95048.59
2022-11-16T13:27:08.309Z,95043.56
2022-11-16T13:29:34.619Z,95045.03
2022-11-16T13:32:00.901Z,95040.31
2022-11-16T13:34:27.201Z,95041.00
2022-11-16T13:36:53.552Z,95040.09
2022-11-16T13:39:22.582Z,95049.19
2022-11-16T13:41:49.376Z,95041.38
2022-11-16T13:47:06.566Z,95040.31
2022-11-16T13:49:32.977Z,95040.50
2022-11-16T13:52:16.843Z,95041.88
2022-11-16T13:54:46.808Z,95053.13
2022-11-16T13:57:14.245Z,95044.94
2022-11-16T13:59:40.924Z,95038.09
2022-11-16T14:02:07.231Z,95025.84
2022-11-16T14:04:33.541Z,95021.00
2022-11-16T14:06:59.917Z,95025.06
2022-11-16T14:09:31.904Z,95018.50
2022-11-16T14:11:59.359Z,95021.19
2022-11-16T14:14:25.683Z,95017.06
2022-11-16T14:16:51.991Z,95023.16
2022-11-16T14:19:18.305Z,95027.78
2022-11-16T14:21:44.634Z,95018.31
2022-11-16T14:24:10.944Z,95016.59
2022-11-16T14:26:37.235Z,95017.72
2022-11-16T14:29:03.739Z,95011.16
2022-11-16T14:31:30.051Z,95002.09
2022-11-16T14:33:56.351Z,95005.00
2022-11-16T14:36:22.660Z,94999.97
2022-11-16T14:38:48.966Z,95000.06
2022-11-16T14:41:15.263Z,94992.91
2022-11-16T14:43:41.620Z,94989.84
2022-11-16T14:46:07.932Z,94988.59
2022-11-16T14:48:34.228Z,94987.44
2022-11-16T14:51:00.558Z,94990.91
2022-11-16T14:53:26.892Z,94994.47
2022-11-16T14:55:53.199Z,94991.19
2022-11-16T14:58:19.513Z,94980.50
2022-11-16T15:00:45.816Z,94984.44
2022-11-16T15:03:12.158Z,94992.56
2022-11-16T15:05:38.596Z,94994.00
2022-11-16T15:08:04.917Z,94994.38
2022-11-16T15:10:31.217Z,95001.44
2022-11-16T15:12:57.526Z,94999.69
2022-11-16T15:15:23.809Z,95000.94
2022-11-16T15:17:50.118Z,94991.13
2022-11-16T15:20:16.427Z,95002.69
2022-11-16T15:22:43.133Z,94995.63
2022-11-16T15:25:09.550Z,94997.66
2022-11-16T15:27:35.865Z,94990.13
2022-11-16T15:30:02.177Z,94987.47
2022-11-16T15:32:28.467Z,94976.28
2022-11-16T15:34:54.784Z,94979.56
2022-11-16T15:37:21.079Z,94981.19
2022-11-16T15:39:47.380Z,94975.72
2022-11-16T15:42:13.723Z,94978.25
2022-11-16T15:44:40.020Z,94972.44
2022-11-16T15:47:06.321Z,94974.44
2022-11-16T15:49:32.681Z,94978.97
2022-11-16T15:51:58.969Z,94975.41
2022-11-16T15:54:25.275Z,94974.03
2022-11-16T15:56:51.581Z,94967.19
2022-11-16T15:59:17.882Z,94962.22
2022-11-16T16:01:44.256Z,94957.66
2022-11-16T16:04:10.623Z,94947.44
2022-11-16T16:06:36.914Z,94944.53
2022-11-16T16:09:03.196Z,94945.06
2022-11-16T16:11:29.537Z,94948.53
2022-11-16T16:13:55.838Z,94942.47
2022-11-16T16:16:22.141Z,94950.84
2022-11-16T16:18:48.453Z,94945.16
2022-11-16T16:21:14.756Z,94952.91
2022-11-16T16:23:41.063Z,94946.06
2022-11-16T16:26:07.472Z,94942.13
2022-11-16T16:28:33.773Z,94944.34
2022-11-16T16:31:00.096Z,94948.31
2022-11-16T16:33:26.413Z,94943.50
2022-11-16T16:35:52.776Z,94951.38
2022-11-16T16:38:19.056Z,94951.28
2022-11-16T16:40:45.368Z,94955.56
2022-11-16T16:43:11.663Z,94957.09
2022-11-16T16:45:37.981Z,94955.44
2022-11-16T16:48:04.288Z,94950.16
2022-11-16T16:50:30.585Z,94955.03
2022-11-16T16:52:56.889Z,94959.59
2022-11-16T16:55:23.243Z,94953.84
2022-11-16T16:57:49.537Z,94958.34
2022-11-16T17:00:15.835Z,94947.78
2022-11-16T17:02:42.159Z,94946.00
2022-11-16T17:05:08.454Z,94943.69
2022-11-16T17:07:34.812Z,94940.47
2022-11-16T17:10:01.207Z,94942.41
2022-11-16T17:12:27.511Z,94943.63
2022-11-16T17:14:53.791Z,94935.53
2022-11-16T17:17:20.094Z,94936.13
2022-11-16T17:19:46.388Z,94932.88
2022-11-16T17:22:12.686Z,94936.97
2022-11-16T17:24:39.022Z,94930.25
2022-11-16T17:27:05.333Z,94931.94
2022-11-16T17:29:31.624Z,94918.09
2022-11-16T17:31:57.937Z,94909.72
2022-11-16T17:34:24.238Z,94913.50
2022-11-16T17:36:50.540Z,94907.50
2022-11-16T17:39:16.873Z,94906.06
2022-11-16T17:41:43.184Z,94905.44
2022-11-16T17:44:09.478Z,94904.03
2022-11-16T17:46:35.784Z,94903.75
2022-11-16T17:49:02.081Z,94901.50
2022-11-16T17:51:28.370Z,94902.22
2022-11-16T17:53:54.689Z,94900.91
2022-11-16T17:56:20.981Z,94893.84
2022-11-16T17:58:47.285Z,94895.69
2022-11-16T18:01:13.677Z,94890.09
2022-11-16T18:03:40.075Z,94885.13
2022-11-16T18:06:06.371Z,94874.59
2022-11-16T18:08:32.680Z,94871.19
2022-11-16T18:10:58.963Z,94859.41
2022-11-16T18:13:25.249Z,94861.63
2022-11-16T18:15:51.691Z,94862.59
2022-11-16T18:18:17.977Z,94867.03
2022-11-16T18:20:44.271Z,94869.88
2022-11-16T18:23:10.576Z,94882.75
2022-11-16T18:25:36.874Z,94876.59
2022-11-16T18:28:03.177Z,94878.47
2022-11-16T18:30:29.500Z,94868.91
2022-11-16T18:32:55.808Z,94864.88
2022-11-16T18:35:22.110Z,94863.19
2022-11-16T18:37:48.449Z,94850.44
2022-11-16T18:40:14.748Z,94841.31
2022-11-16T18:42:41.052Z,94833.03
2022-11-16T18:45:07.372Z,94823.38
2022-11-16T18:47:33.668Z,94831.41
2022-11-16T18:49:59.974Z,94821.03
2022-11-16T18:52:26.320Z,94809.34
2022-11-16T18:54:52.615Z,94808.50
2022-11-16T18:57:18.914Z,94808.75
2022-11-16T18:59:45.237Z,94793.38
2022-11-16T19:02:11.540Z,94800.03
2022-11-16T19:04:37.844Z,94796.47
2022-11-16T19:07:04.251Z,94800.94
2022-11-16T19:09:30.567Z,94817.41
2022-11-16T19:11:56.855Z,94807.91
2022-11-16T19:14:23.169Z,94796.41
2022-11-16T19:16:55.641Z,94799.91
2022-11-16T19:19:23.164Z,94783.53
2022-11-16T19:21:49.459Z,94768.06
2022-11-16T19:24:15.753Z,94768.84
2022-11-16T19:26:42.060Z,94771.75
2022-11-16T19:29:08.346Z,94781.31
2022-11-16T19:31:34.632Z,94761.66
2022-11-16T19:34:00.930Z,94763.66
2022-11-16T19:36:27.232Z,94767.09
2022-11-16T19:38:53.526Z,94766.31
2022-11-16T19:41:19.856Z,94768.53
2022-11-16T19:43:46.153Z,94761.44
2022-11-16T19:46:12.437Z,94757.97
2022-11-16T19:48:38.778Z,94734.25
2022-11-16T19:51:05.060Z,94732.09
2022-11-16T19:53:31.494Z,94731.53
2022-11-16T19:55:57.910Z,94741.84
2022-11-16T19:58:24.216Z,94764.09
2022-11-16T20:00:50.560Z,94775.66
2022-11-16T20:03:16.899Z,94771.00
2022-11-16T20:05:43.244Z,94750.66
2022-11-16T20:08:09.527Z,94733.50
2022-11-16T20:10:35.893Z,94731.34
2022-11-16T20:13:02.189Z,94730.50
2022-11-16T20:15:28.492Z,94742.50
2022-11-16T20:17:54.795Z,94748.47
2022-11-16T20:20:21.095Z,94766.09
2022-11-16T20:22:47.393Z,94769.47
2022-11-16T20:25:13.704Z,94765.75
2022-11-16T20:27:40.037Z,94765.34
2022-11-16T20:30:09.564Z,94766.47
2022-11-16T20:32:36.257Z,94753.78
2022-11-16T20:35:02.548Z,94753.16
2022-11-16T20:37:28.845Z,94760.56
2022-11-16T20:39:55.165Z,94773.84
2022-11-16T20:42:21.451Z,94783.59
2022-11-16T20:44:47.755Z,94779.69
2022-11-16T20:47:14.063Z,94779.38
2022-11-16T20:49:40.352Z,94785.91
2022-11-16T20:52:06.655Z,94787.16
2022-11-16T20:54:32.972Z,94795.28
2022-11-16T20:56:59.278Z,94792.50
2022-11-16T20:59:25.574Z,94784.78
2022-11-16T21:01:52.002Z,94772.31
2022-11-16T21:04:18.326Z,94776.94
2022-11-16T21:06:44.627Z,94776.94
2022-11-16T21:09:10.957Z,94776.16
2022-11-16T21:11:37.257Z,94779.72
2022-11-16T21:14:03.564Z,94777.75
2022-11-16T21:16:29.930Z,94780.25
2022-11-16T21:18:56.223Z,94791.13
2022-11-16T21:21:22.553Z,94795.72
2022-11-16T21:23:48.864Z,94783.03
2022-11-16T21:26:15.171Z,94784.78
2022-11-16T21:28:41.477Z,94781.63
2022-11-16T21:31:07.796Z,94784.59
2022-11-16T21:33:34.374Z,94784.78
2022-11-16T21:36:00.837Z,94780.38
2022-11-16T21:38:28.126Z,94779.72
2022-11-16T21:40:54.423Z,94774.81
2022-11-16T21:43:20.715Z,94773.78
2022-11-16T21:45:47.034Z,94779.00
2022-11-16T21:48:13.340Z,94782.84
2022-11-16T21:50:39.632Z,94777.25
2022-11-16T21:53:05.955Z,94785.97
2022-11-16T21:55:32.373Z,94790.69
2022-11-16T21:57:58.675Z,94787.84
2022-11-16T22:00:25.012Z,94791.06
2022-11-16T22:02:51.316Z,94803.63
2022-11-16T22:05:17.704Z,94825.72
2022-11-16T22:07:44.048Z,94752.19
2022-11-16T22:10:10.351Z,94747.38
2022-11-16T22:12:36.750Z,94753.44
2022-11-16T22:15:03.085Z,94791.63
2022-11-16T22:17:29.393Z,94787.28
2022-11-16T22:19:55.700Z,94778.03
2022-11-16T22:22:22.086Z,94787.53
2022-11-16T22:24:48.557Z,94779.78
2022-11-16T22:27:14.949Z,94773.31
2022-11-16T22:29:41.260Z,94743.09
2022-11-16T22:32:07.551Z,94728.78
2022-11-16T22:34:33.867Z,94758.38
2022-11-16T22:37:00.186Z,94749.81
2022-11-16T22:39:26.494Z,94765.25
2022-11-16T22:41:52.801Z,94766.81
2022-11-16T22:44:19.128Z,94765.19
2022-11-16T22:46:45.429Z,94754.69
2022-11-16T22:49:11.744Z,94763.47
2022-11-16T22:51:38.052Z,94761.25
2022-11-16T22:54:04.351Z,94764.66
2022-11-16T22:56:30.655Z,94763.03
2022-11-16T22:58:56.999Z,94768.44
2022-11-16T23:01:23.297Z,94776.00
2022-11-16T23:03:49.647Z,94765.16
2022-11-16T23:06:15.991Z,94759.28
2022-11-16T23:08:42.282Z,94760.06
2022-11-16T23:11:08.617Z,94773.16
2022-11-16T23:13:35.121Z,94771.53
2022-11-16T23:16:01.666Z,94768.56
2022-11-16T23:18:27.964Z,94768.22
2022-11-16T23:20:54.283Z,94773.03
2022-11-16T23:23:20.574Z,94779.03
2022-11-16T23:25:46.857Z,94790.84
2022-11-16T23:28:13.201Z,94779.44
2022-11-16T23:30:39.502Z,94764.88
2022-11-16T23:33:05.798Z,94763.03
2022-11-16T23:35:32.121Z,94742.59
2022-11-16T23:37:58.426Z,94724.50
2022-11-16T23:40:24.730Z,94736.81
2022-11-16T23:42:51.052Z,94728.19
2022-11-16T23:45:17.459Z,94735.72
2022-11-16T23:47:43.754Z,94734.47
2022-11-16T23:50:10.060Z,94741.13
2022-11-16T23:52:36.379Z,94743.44
2022-11-16T23:55:02.686Z,94725.78
2022-11-16T23:57:28.986Z,94704.94
2022-11-16T23:59:55.290Z,94710.19
